sensor_id;sensor_type;location;lat;lon;timestamp;P1;durP1;ratioP1;P2;durP2;ratioP2
9178;SDS011;4624;48.126;11.546;2022-09-02T00:01:22;3.00;;;1.60;;
9178;SDS011;4624;48.126;11.546;2022-09-02T00:03:53;2.37;;;1.47;;
9178;SDS011;4624;48.126;11.546;2022-09-02T00:06:21;1.43;;;1.23;;
9178;SDS011;4624;48.126;11.546;2022-09-02T00:08:48;1.57;;;1.40;;
9178;SDS011;4624;48.126;11.546;2022-09-02T00:11:17;1.80;;;1.50;;
9178;SDS011;4624;48.126;11.546;2022-09-02T00:13:46;4.10;;;1.90;;
9178;SDS011;4624;48.126;11.546;2022-09-02T00:16:14;1.60;;;1.50;;
9178;SDS011;4624;48.126;11.546;2022-09-02T00:18:42;1.50;;;1.13;;
9178;SDS011;4624;48.126;11.546;2022-09-02T00:21:10;1.40;;;1.30;;
9178;SDS011;4624;48.126;11.546;2022-09-02T00:23:38;1.50;;;1.30;;
9178;SDS011;4624;48.126;11.546;2022-09-02T00:26:06;1.57;;;1.47;;
9178;SDS011;4624;48.126;11.546;2022-09-02T00:28:33;1.60;;;1.50;;
9178;SDS011;4624;48.126;11.546;2022-09-02T00:30:59;3.23;;;1.63;;
9178;SDS011;4624;48.126;11.546;2022-09-02T00:33:26;2.10;;;1.87;;
9178;SDS011;4624;48.126;11.546;2022-09-02T00:35:58;1.83;;;1.40;;
9178;SDS011;4624;48.126;11.546;2022-09-02T00:38:25;1.23;;;1.13;;
9178;SDS011;4624;48.126;11.546;2022-09-02T00:40:52;2.87;;;1.47;;
9178;SDS011;4624;48.126;11.546;2022-09-02T00:43:24;1.73;;;1.23;;
9178;SDS011;4624;48.126;11.546;2022-09-02T00:45:52;1.70;;;1.60;;
9178;SDS011;4624;48.126;11.546;2022-09-02T00:48:19;1.60;;;1.43;;
9178;SDS011;4624;48.126;11.546;2022-09-02T00:50:46;3.83;;;1.50;;
9178;SDS011;4624;48.126;11.546;2022-09-02T00:53:16;1.40;;;1.30;;
9178;SDS011;4624;48.126;11.546;2022-09-02T00:55:45;1.50;;;1.40;;
9178;SDS011;4624;48.126;11.546;2022-09-02T00:58:15;2.60;;;1.43;;
9178;SDS011;4624;48.126;11.546;2022-09-02T01:00:46;1.60;;;1.50;;
9178;SDS011;4624;48.126;11.546;2022-09-02T01:03:17;2.50;;;1.80;;
9178;SDS011;4624;48.126;11.546;2022-09-02T01:05:46;2.33;;;1.33;;
9178;SDS011;4624;48.126;11.546;2022-09-02T01:08:16;4.37;;;1.70;;
9178;SDS011;4624;48.126;11.546;2022-09-02T01:10:45;1.63;;;1.53;;
9178;SDS011;4624;48.126;11.546;2022-09-02T01:13:15;1.87;;;1.43;;
9178;SDS011;4624;48.126;11.546;2022-09-02T01:15:45;1.50;;;1.40;;
9178;SDS011;4624;48.126;11.546;2022-09-02T01:18:14;2.13;;;1.40;;
9178;SDS011;4624;48.126;11.546;2022-09-02T01:20:44;1.90;;;1.67;;
9178;SDS011;4624;48.126;11.546;2022-09-02T01:23:13;4.73;;;1.60;;
9178;SDS011;4624;48.126;11.546;2022-09-02T01:25:41;2.23;;;1.50;;
9178;SDS011;4624;48.126;11.546;2022-09-02T01:28:09;1.90;;;1.30;;
9178;SDS011;4624;48.126;11.546;2022-09-02T01:30:39;1.70;;;1.53;;
9178;SDS011;4624;48.126;11.546;2022-09-02T01:33:09;1.90;;;1.40;;
9178;SDS011;4624;48.126;11.546;2022-09-02T01:35:37;2.07;;;1.43;;
9178;SDS011;4624;48.126;11.546;2022-09-02T01:38:04;3.50;;;1.63;;
9178;SDS011;4624;48.126;11.546;2022-09-02T01:40:32;2.10;;;1.40;;
9178;SDS011;4624;48.126;11.546;2022-09-02T01:43:00;1.90;;;1.70;;
9178;SDS011;4624;48.126;11.546;2022-09-02T01:45:31;3.30;;;1.80;;
9178;SDS011;4624;48.126;11.546;2022-09-02T01:47:57;1.63;;;1.53;;
9178;SDS011;4624;48.126;11.546;2022-09-02T01:50:24;2.57;;;1.87;;
9178;SDS011;4624;48.126;11.546;2022-09-02T01:52:52;2.60;;;1.80;;
9178;SDS011;4624;48.126;11.546;2022-09-02T01:55:19;1.80;;;1.70;;
9178;SDS011;4624;48.126;11.546;2022-09-02T01:57:48;4.07;;;1.63;;
9178;SDS011;4624;48.126;11.546;2022-09-02T02:00:15;1.70;;;1.60;;
9178;SDS011;4624;48.126;11.546;2022-09-02T02:02:42;1.87;;;1.43;;
9178;SDS011;4624;48.126;11.546;2022-09-02T02:05:09;2.07;;;1.40;;
9178;SDS011;4624;48.126;11.546;2022-09-02T02:07:38;1.67;;;1.50;;
9178;SDS011;4624;48.126;11.546;2022-09-02T02:10:06;2.40;;;1.40;;
9178;SDS011;4624;48.126;11.546;2022-09-02T02:12:34;1.93;;;1.57;;
9178;SDS011;4624;48.126;11.546;2022-09-02T02:15:02;2.23;;;1.53;;
9178;SDS011;4624;48.126;11.546;2022-09-02T02:17:30;2.37;;;1.70;;
9178;SDS011;4624;48.126;11.546;2022-09-02T02:19:57;1.73;;;1.63;;
9178;SDS011;4624;48.126;11.546;2022-09-02T02:22:23;3.93;;;1.60;;
9178;SDS011;4624;48.126;11.546;2022-09-02T02:24:51;2.17;;;2.07;;
9178;SDS011;4624;48.126;11.546;2022-09-02T02:27:18;1.87;;;1.77;;
9178;SDS011;4624;48.126;11.546;2022-09-02T02:29:45;2.27;;;1.70;;
9178;SDS011;4624;48.126;11.546;2022-09-02T02:32:13;1.63;;;1.53;;
9178;SDS011;4624;48.126;11.546;2022-09-02T02:34:42;2.27;;;1.43;;
9178;SDS011;4624;48.126;11.546;2022-09-02T02:37:09;2.07;;;1.97;;
9178;SDS011;4624;48.126;11.546;2022-09-02T02:39:37;1.60;;;1.50;;
9178;SDS011;4624;48.126;11.546;2022-09-02T02:42:04;1.87;;;1.77;;
9178;SDS011;4624;48.126;11.546;2022-09-02T02:44:32;1.50;;;1.40;;
9178;SDS011;4624;48.126;11.546;2022-09-02T02:46:59;2.77;;;1.63;;
9178;SDS011;4624;48.126;11.546;2022-09-02T02:49:28;2.43;;;1.77;;
9178;SDS011;4624;48.126;11.546;2022-09-02T02:51:54;3.50;;;1.80;;
9178;SDS011;4624;48.126;11.546;2022-09-02T02:54:21;1.70;;;1.60;;
9178;SDS011;4624;48.126;11.546;2022-09-02T02:56:48;3.57;;;1.87;;
9178;SDS011;4624;48.126;11.546;2022-09-02T02:59:15;3.53;;;2.03;;
9178;SDS011;4624;48.126;11.546;2022-09-02T03:01:41;1.97;;;1.87;;
9178;SDS011;4624;48.126;11.546;2022-09-02T03:04:08;2.27;;;1.97;;
9178;SDS011;4624;48.126;11.546;2022-09-02T03:06:36;2.27;;;1.83;;
9178;SDS011;4624;48.126;11.546;2022-09-02T03:09:03;1.87;;;1.77;;
9178;SDS011;4624;48.126;11.546;2022-09-02T03:11:30;2.17;;;1.80;;
9178;SDS011;4624;48.126;11.546;2022-09-02T03:13:57;2.97;;;2.23;;
9178;SDS011;4624;48.126;11.546;2022-09-02T03:16:24;2.83;;;1.77;;
9178;SDS011;4624;48.126;11.546;2022-09-02T03:18:51;2.73;;;2.10;;
9178;SDS011;4624;48.126;11.546;2022-09-02T03:21:18;4.60;;;2.10;;
9178;SDS011;4624;48.126;11.546;2022-09-02T03:23:46;3.00;;;2.00;;
9178;SDS011;4624;48.126;11.546;2022-09-02T03:26:15;2.40;;;2.20;;
9178;SDS011;4624;48.126;11.546;2022-09-02T03:28:43;2.53;;;2.33;;
9178;SDS011;4624;48.126;11.546;2022-09-02T03:31:12;2.60;;;1.97;;
9178;SDS011;4624;48.126;11.546;2022-09-02T03:33:41;3.40;;;3.10;;
9178;SDS011;4624;48.126;11.546;2022-09-02T03:36:10;2.27;;;2.03;;
9178;SDS011;4624;48.126;11.546;2022-09-02T03:38:46;3.30;;;2.10;;
9178;SDS011;4624;48.126;11.546;2022-09-02T03:41:13;2.33;;;1.77;;
9178;SDS011;4624;48.126;11.546;2022-09-02T03:43:40;3.10;;;2.20;;
9178;SDS011;4624;48.126;11.546;2022-09-02T03:46:07;2.93;;;2.20;;
9178;SDS011;4624;48.126;11.546;2022-09-02T03:48:34;2.20;;;2.00;;
9178;SDS011;4624;48.126;11.546;2022-09-02T03:51:01;3.13;;;2.10;;
9178;SDS011;4624;48.126;11.546;2022-09-02T03:53:29;2.80;;;2.60;;
9178;SDS011;4624;48.126;11.546;2022-09-02T03:55:58;2.30;;;2.20;;
9178;SDS011;4624;48.126;11.546;2022-09-02T03:58:29;2.30;;;2.10;;
9178;SDS011;4624;48.126;11.546;2022-09-02T04:00:55;3.33;;;2.60;;
9178;SDS011;4624;48.126;11.546;2022-09-02T04:03:22;2.47;;;2.27;;
9178;SDS011;4624;48.126;11.546;2022-09-02T04:05:49;2.50;;;2.30;;
9178;SDS011;4624;48.126;11.546;2022-09-02T04:08:16;3.27;;;2.27;;
9178;SDS011;4624;48.126;11.546;2022-09-02T04:10:44;2.97;;;2.10;;
9178;SDS011;4624;48.126;11.546;2022-09-02T04:13:12;2.90;;;2.60;;
9178;SDS011;4624;48.126;11.546;2022-09-02T04:15:39;2.20;;;2.00;;
9178;SDS011;4624;48.126;11.546;2022-09-02T04:21:30;3.13;;;2.93;;
9178;SDS011;4624;48.126;11.546;2022-09-02T04:23:59;3.53;;;2.40;;
9178;SDS011;4624;48.126;11.546;2022-09-02T04:26:25;2.83;;;2.50;;
9178;SDS011;4624;48.126;11.546;2022-09-02T04:28:54;2.73;;;2.53;;
9178;SDS011;4624;48.126;11.546;2022-09-02T04:31:22;3.27;;;3.00;;
9178;SDS011;4624;48.126;11.546;2022-09-02T04:33:50;2.67;;;2.30;;
9178;SDS011;4624;48.126;11.546;2022-09-02T04:36:18;3.37;;;2.80;;
9178;SDS011;4624;48.126;11.546;2022-09-02T04:38:46;3.73;;;3.07;;
9178;SDS011;4624;48.126;11.546;2022-09-02T04:41:14;3.90;;;3.10;;
9178;SDS011;4624;48.126;11.546;2022-09-02T04:43:41;4.27;;;2.50;;
9178;SDS011;4624;48.126;11.546;2022-09-02T04:46:11;3.10;;;2.70;;
9178;SDS011;4624;48.126;11.546;2022-09-02T04:48:39;2.80;;;2.60;;
9178;SDS011;4624;48.126;11.546;2022-09-02T04:51:06;3.90;;;3.37;;
9178;SDS011;4624;48.126;11.546;2022-09-02T04:53:35;2.83;;;2.63;;
9178;SDS011;4624;48.126;11.546;2022-09-02T04:56:02;3.40;;;3.10;;
9178;SDS011;4624;48.126;11.546;2022-09-02T04:58:30;3.40;;;2.60;;
9178;SDS011;4624;48.126;11.546;2022-09-02T05:00:56;3.07;;;2.73;;
9178;SDS011;4624;48.126;11.546;2022-09-02T05:03:25;3.70;;;3.40;;
9178;SDS011;4624;48.126;11.546;2022-09-02T05:05:58;3.50;;;3.20;;
9178;SDS011;4624;48.126;11.546;2022-09-02T05:08:26;3.60;;;2.53;;
9178;SDS011;4624;48.126;11.546;2022-09-02T05:10:53;3.90;;;3.23;;
9178;SDS011;4624;48.126;11.546;2022-09-02T05:13:20;3.30;;;3.00;;
9178;SDS011;4624;48.126;11.546;2022-09-02T05:15:47;4.60;;;2.73;;
9178;SDS011;4624;48.126;11.546;2022-09-02T05:18:14;3.60;;;3.40;;
9178;SDS011;4624;48.126;11.546;2022-09-02T05:20:43;4.03;;;3.07;;
9178;SDS011;4624;48.126;11.546;2022-09-02T05:23:10;3.67;;;3.37;;
9178;SDS011;4624;48.126;11.546;2022-09-02T05:25:37;3.47;;;3.17;;
9178;SDS011;4624;48.126;11.546;2022-09-02T05:28:04;4.13;;;3.73;;
9178;SDS011;4624;48.126;11.546;2022-09-02T05:30:33;4.53;;;3.53;;
9178;SDS011;4624;48.126;11.546;2022-09-02T05:33:00;3.73;;;2.97;;
9178;SDS011;4624;48.126;11.546;2022-09-02T05:35:26;3.47;;;3.20;;
9178;SDS011;4624;48.126;11.546;2022-09-02T05:37:55;3.30;;;3.10;;
9178;SDS011;4624;48.126;11.546;2022-09-02T05:40:22;3.13;;;2.90;;
9178;SDS011;4624;48.126;11.546;2022-09-02T05:42:48;5.23;;;2.90;;
9178;SDS011;4624;48.126;11.546;2022-09-02T05:45:16;3.73;;;3.33;;
9178;SDS011;4624;48.126;11.546;2022-09-02T05:47:43;3.40;;;3.17;;
9178;SDS011;4624;48.126;11.546;2022-09-02T05:50:09;4.17;;;3.40;;
9178;SDS011;4624;48.126;11.546;2022-09-02T05:52:39;3.40;;;3.20;;
9178;SDS011;4624;48.126;11.546;2022-09-02T05:55:07;5.37;;;3.10;;
9178;SDS011;4624;48.126;11.546;2022-09-02T05:57:35;3.03;;;2.80;;
9178;SDS011;4624;48.126;11.546;2022-09-02T06:00:02;4.23;;;3.57;;
9178;SDS011;4624;48.126;11.546;2022-09-02T06:02:31;3.07;;;2.80;;
9178;SDS011;4624;48.126;11.546;2022-09-02T06:04:58;5.20;;;3.70;;
9178;SDS011;4624;48.126;11.546;2022-09-02T06:07:25;3.80;;;3.13;;
9178;SDS011;4624;48.126;11.546;2022-09-02T06:09:52;3.40;;;2.93;;
9178;SDS011;4624;48.126;11.546;2022-09-02T06:12:20;3.33;;;3.03;;
9178;SDS011;4624;48.126;11.546;2022-09-02T06:14:47;4.33;;;4.03;;
9178;SDS011;4624;48.126;11.546;2022-09-02T06:17:14;6.60;;;3.40;;
9178;SDS011;4624;48.126;11.546;2022-09-02T06:19:41;2.90;;;2.70;;
9178;SDS011;4624;48.126;11.546;2022-09-02T06:22:08;3.07;;;2.50;;
9178;SDS011;4624;48.126;11.546;2022-09-02T06:24:35;4.00;;;2.07;;
9178;SDS011;4624;48.126;11.546;2022-09-02T06:27:02;2.87;;;2.67;;
9178;SDS011;4624;48.126;11.546;2022-09-02T06:29:32;2.23;;;2.03;;
9178;SDS011;4624;48.126;11.546;2022-09-02T06:31:59;3.40;;;2.30;;
9178;SDS011;4624;48.126;11.546;2022-09-02T06:34:26;4.60;;;2.10;;
9178;SDS011;4624;48.126;11.546;2022-09-02T06:36:53;2.47;;;1.90;;
9178;SDS011;4624;48.126;11.546;2022-09-02T06:39:22;2.70;;;2.37;;
9178;SDS011;4624;48.126;11.546;2022-09-02T06:41:49;1.97;;;1.80;;
9178;SDS011;4624;48.126;11.546;2022-09-02T06:44:17;4.73;;;1.90;;
9178;SDS011;4624;48.126;11.546;2022-09-02T06:46:53;4.07;;;2.00;;
9178;SDS011;4624;48.126;11.546;2022-09-02T06:49:21;2.20;;;1.63;;
9178;SDS011;4624;48.126;11.546;2022-09-02T06:51:49;2.00;;;1.87;;
9178;SDS011;4624;48.126;11.546;2022-09-02T06:54:18;3.20;;;2.20;;
9178;SDS011;4624;48.126;11.546;2022-09-02T06:56:47;3.73;;;1.73;;
9178;SDS011;4624;48.126;11.546;2022-09-02T06:59:15;2.20;;;2.07;;
9178;SDS011;4624;48.126;11.546;2022-09-02T07:01:42;2.47;;;2.10;;
9178;SDS011;4624;48.126;11.546;2022-09-02T07:04:11;2.37;;;1.83;;
9178;SDS011;4624;48.126;11.546;2022-09-02T07:06:55;2.10;;;1.90;;
9178;SDS011;4624;48.126;11.546;2022-09-02T07:09:24;1.83;;;1.73;;
9178;SDS011;4624;48.126;11.546;2022-09-02T07:11:55;2.17;;;1.80;;
9178;SDS011;4624;48.126;11.546;2022-09-02T07:14:23;3.47;;;1.90;;
9178;SDS011;4624;48.126;11.546;2022-09-02T07:16:52;1.70;;;1.60;;
9178;SDS011;4624;48.126;11.546;2022-09-02T07:19:23;2.30;;;2.07;;
9178;SDS011;4624;48.126;11.546;2022-09-02T07:21:50;1.40;;;1.30;;
9178;SDS011;4624;48.126;11.546;2022-09-02T07:24:17;2.93;;;1.50;;
9178;SDS011;4624;48.126;11.546;2022-09-02T07:26:44;1.77;;;1.67;;
9178;SDS011;4624;48.126;11.546;2022-09-02T07:29:11;1.93;;;1.50;;
9178;SDS011;4624;48.126;11.546;2022-09-02T07:31:39;1.88;;;1.77;;
9178;SDS011;4624;48.126;11.546;2022-09-02T07:34:07;3.20;;;1.75;;
9178;SDS011;4624;48.126;11.546;2022-09-02T07:36:36;2.53;;;1.90;;
9178;SDS011;4624;48.126;11.546;2022-09-02T07:39:03;3.80;;;1.50;;
9178;SDS011;4624;48.126;11.546;2022-09-02T07:41:31;3.65;;;1.58;;
9178;SDS011;4624;48.126;11.546;2022-09-02T07:43:59;2.50;;;1.40;;
9178;SDS011;4624;48.126;11.546;2022-09-02T07:46:26;3.65;;;1.63;;
9178;SDS011;4624;48.126;11.546;2022-09-02T07:48:53;4.05;;;1.30;;
9178;SDS011;4624;48.126;11.546;2022-09-02T07:51:21;1.42;;;1.27;;
9178;SDS011;4624;48.126;11.546;2022-09-02T07:53:49;1.73;;;1.27;;
9178;SDS011;4624;48.126;11.546;2022-09-02T07:56:16;3.47;;;1.50;;
9178;SDS011;4624;48.126;11.546;2022-09-02T07:58:44;3.67;;;1.55;;
9178;SDS011;4624;48.126;11.546;2022-09-02T08:01:11;1.50;;;0.95;;
9178;SDS011;4624;48.126;11.546;2022-09-02T08:03:39;1.00;;;1.00;;
9178;SDS011;4624;48.126;11.546;2022-09-02T08:06:09;1.77;;;1.30;;
9178;SDS011;4624;48.126;11.546;2022-09-02T08:08:37;1.80;;;1.55;;
9178;SDS011;4624;48.126;11.546;2022-09-02T08:11:05;2.30;;;1.52;;
9178;SDS011;4624;48.126;11.546;2022-09-02T08:13:33;2.47;;;2.00;;
9178;SDS011;4624;48.126;11.546;2022-09-02T08:16:00;2.00;;;0.90;;
9178;SDS011;4624;48.126;11.546;2022-09-02T08:18:27;2.17;;;0.95;;
9178;SDS011;4624;48.126;11.546;2022-09-02T08:20:54;1.73;;;1.15;;
9178;SDS011;4624;48.126;11.546;2022-09-02T08:23:21;1.20;;;1.08;;
9178;SDS011;4624;48.126;11.546;2022-09-02T08:25:48;1.05;;;0.73;;
9178;SDS011;4624;48.126;11.546;2022-09-02T08:28:16;1.60;;;1.02;;
9178;SDS011;4624;48.126;11.546;2022-09-02T08:30:43;1.10;;;0.98;;
9178;SDS011;4624;48.126;11.546;2022-09-02T08:33:10;0.70;;;0.70;;
9178;SDS011;4624;48.126;11.546;2022-09-02T08:35:37;1.33;;;1.00;;
9178;SDS011;4624;48.126;11.546;2022-09-02T08:38:04;0.90;;;0.90;;
9178;SDS011;4624;48.126;11.546;2022-09-02T08:40:33;0.80;;;0.70;;
9178;SDS011;4624;48.126;11.546;2022-09-02T08:43:02;1.58;;;0.80;;
9178;SDS011;4624;48.126;11.546;2022-09-02T08:45:35;1.00;;;0.68;;
9178;SDS011;4624;48.126;11.546;2022-09-02T08:48:03;2.90;;;0.80;;
9178;SDS011;4624;48.126;11.546;2022-09-02T08:50:37;1.40;;;0.77;;
9178;SDS011;4624;48.126;11.546;2022-09-02T08:53:06;2.40;;;0.88;;
9178;SDS011;4624;48.126;11.546;2022-09-02T08:55:42;2.30;;;0.68;;
9178;SDS011;4624;48.126;11.546;2022-09-02T08:58:13;1.15;;;0.70;;
9178;SDS011;4624;48.126;11.546;2022-09-02T09:00:44;1.80;;;0.65;;
9178;SDS011;4624;48.126;11.546;2022-09-02T09:03:21;1.35;;;0.60;;
9178;SDS011;4624;48.126;11.546;2022-09-02T09:05:53;1.52;;;0.57;;
9178;SDS011;4624;48.126;11.546;2022-09-02T09:08:29;0.77;;;0.60;;
9178;SDS011;4624;48.126;11.546;2022-09-02T09:11:04;0.93;;;0.65;;
9178;SDS011;4624;48.126;11.546;2022-09-02T09:16:36;1.20;;;0.85;;
9178;SDS011;4624;48.126;11.546;2022-09-02T09:19:06;0.88;;;0.80;;
9178;SDS011;4624;48.126;11.546;2022-09-02T09:21:37;0.75;;;0.50;;
9178;SDS011;4624;48.126;11.546;2022-09-02T09:24:06;0.55;;;0.55;;
9178;SDS011;4624;48.126;11.546;2022-09-02T09:26:35;0.60;;;0.57;;
9178;SDS011;4624;48.126;11.546;2022-09-02T09:29:05;0.70;;;0.60;;
9178;SDS011;4624;48.126;11.546;2022-09-02T09:31:32;2.00;;;0.70;;
9178;SDS011;4624;48.126;11.546;2022-09-02T09:34:03;0.55;;;0.55;;
9178;SDS011;4624;48.126;11.546;2022-09-02T09:36:48;0.90;;;0.65;;
9178;SDS011;4624;48.126;11.546;2022-09-02T09:39:21;1.40;;;0.90;;
9178;SDS011;4624;48.126;11.546;2022-09-02T09:41:50;1.17;;;0.70;;
9178;SDS011;4624;48.126;11.546;2022-09-02T09:44:31;0.50;;;0.50;;
9178;SDS011;4624;48.126;11.546;2022-09-02T09:47:05;0.75;;;0.75;;
9178;SDS011;4624;48.126;11.546;2022-09-02T09:49:33;1.23;;;0.60;;
9178;SDS011;4624;48.126;11.546;2022-09-02T09:52:01;0.90;;;0.70;;
9178;SDS011;4624;48.126;11.546;2022-09-02T09:54:28;0.88;;;0.65;;
9178;SDS011;4624;48.126;11.546;2022-09-02T09:56:55;1.77;;;0.80;;
9178;SDS011;4624;48.126;11.546;2022-09-02T09:59:38;0.90;;;0.60;;
9178;SDS011;4624;48.126;11.546;2022-09-02T10:02:12;1.10;;;0.93;;
9178;SDS011;4624;48.126;11.546;2022-09-02T10:04:47;0.70;;;0.60;;
9178;SDS011;4624;48.126;11.546;2022-09-02T10:07:14;1.48;;;0.80;;
9178;SDS011;4624;48.126;11.546;2022-09-02T10:10:08;0.75;;;0.60;;
9178;SDS011;4624;48.126;11.546;2022-09-02T10:12:45;0.57;;;0.57;;
9178;SDS011;4624;48.126;11.546;2022-09-02T10:15:14;0.93;;;0.70;;
9178;SDS011;4624;48.126;11.546;2022-09-02T10:17:48;2.75;;;0.93;;
9178;SDS011;4624;48.126;11.546;2022-09-02T10:20:21;2.30;;;0.60;;
9178;SDS011;4624;48.126;11.546;2022-09-02T10:23:04;0.98;;;0.70;;
9178;SDS011;4624;48.126;11.546;2022-09-02T10:25:52;0.50;;;0.50;;
9178;SDS011;4624;48.126;11.546;2022-09-02T10:31:28;1.00;;;0.50;;
9178;SDS011;4624;48.126;11.546;2022-09-02T10:34:06;1.30;;;0.60;;
9178;SDS011;4624;48.126;11.546;2022-09-02T10:36:44;2.00;;;0.57;;
9178;SDS011;4624;48.126;11.546;2022-09-02T10:39:25;0.63;;;0.52;;
9178;SDS011;4624;48.126;11.546;2022-09-02T10:42:01;2.28;;;0.60;;
9178;SDS011;4624;48.126;11.546;2022-09-02T10:44:38;2.03;;;0.50;;
9178;SDS011;4624;48.126;11.546;2022-09-02T10:47:15;0.70;;;0.40;;
9178;SDS011;4624;48.126;11.546;2022-09-02T10:49:59;0.40;;;0.40;;
9178;SDS011;4624;48.126;11.546;2022-09-02T10:52:39;0.75;;;0.50;;
9178;SDS011;4624;48.126;11.546;2022-09-02T10:55:31;0.80;;;0.63;;
9178;SDS011;4624;48.126;11.546;2022-09-02T10:58:07;0.68;;;0.50;;
9178;SDS011;4624;48.126;11.546;2022-09-02T11:00:40;3.03;;;0.70;;
9178;SDS011;4624;48.126;11.546;2022-09-02T11:03:12;1.70;;;0.70;;
9178;SDS011;4624;48.126;11.546;2022-09-02T11:05:46;0.80;;;0.60;;
9178;SDS011;4624;48.126;11.546;2022-09-02T11:08:17;0.82;;;0.60;;
9178;SDS011;4624;48.126;11.546;2022-09-02T11:10:52;0.47;;;0.47;;
9178;SDS011;4624;48.126;11.546;2022-09-02T11:13:26;1.30;;;0.95;;
9178;SDS011;4624;48.126;11.546;2022-09-02T11:16:00;0.60;;;0.50;;
9178;SDS011;4624;48.126;11.546;2022-09-02T11:18:31;1.33;;;0.57;;
9178;SDS011;4624;48.126;11.546;2022-09-02T11:21:12;0.57;;;0.50;;
9178;SDS011;4624;48.126;11.546;2022-09-02T11:23:50;0.57;;;0.40;;
9178;SDS011;4624;48.126;11.546;2022-09-02T11:26:25;2.95;;;0.65;;
9178;SDS011;4624;48.126;11.546;2022-09-02T11:28:57;1.13;;;0.70;;
9178;SDS011;4624;48.126;11.546;2022-09-02T11:31:31;0.60;;;0.60;;
9178;SDS011;4624;48.126;11.546;2022-09-02T11:34:04;2.03;;;0.50;;
9178;SDS011;4624;48.126;11.546;2022-09-02T11:36:43;1.08;;;0.60;;
9178;SDS011;4624;48.126;11.546;2022-09-02T11:39:11;2.10;;;0.70;;
9178;SDS011;4624;48.126;11.546;2022-09-02T11:41:47;0.70;;;0.50;;
9178;SDS011;4624;48.126;11.546;2022-09-02T11:44:27;1.45;;;0.40;;
9178;SDS011;4624;48.126;11.546;2022-09-02T11:52:57;2.33;;;0.50;;
9178;SDS011;4624;48.126;11.546;2022-09-02T11:55:37;0.70;;;0.60;;
9178;SDS011;4624;48.126;11.546;2022-09-02T11:58:06;0.80;;;0.50;;
9178;SDS011;4624;48.126;11.546;2022-09-02T12:00:34;0.88;;;0.45;;
9178;SDS011;4624;48.126;11.546;2022-09-02T12:03:22;0.50;;;0.50;;
9178;SDS011;4624;48.126;11.546;2022-09-02T12:06:09;0.77;;;0.38;;
9178;SDS011;4624;48.126;11.546;2022-09-02T12:11:43;0.60;;;0.40;;
9178;SDS011;4624;48.126;11.546;2022-09-02T12:17:38;0.60;;;0.50;;
9178;SDS011;4624;48.126;11.546;2022-09-02T12:29:44;2.13;;;0.50;;
9178;SDS011;4624;48.126;11.546;2022-09-02T12:32:10;0.73;;;0.73;;
9178;SDS011;4624;48.126;11.546;2022-09-02T12:34:58;0.65;;;0.43;;
9178;SDS011;4624;48.126;11.546;2022-09-02T12:37:53;2.45;;;0.60;;
9178;SDS011;4624;48.126;11.546;2022-09-02T12:40:25;1.75;;;0.40;;
9178;SDS011;4624;48.126;11.546;2022-09-02T12:42:58;0.90;;;0.70;;
9178;SDS011;4624;48.126;11.546;2022-09-02T12:45:30;0.90;;;0.65;;
9178;SDS011;4624;48.126;11.546;2022-09-02T12:47:59;2.40;;;0.80;;
9178;SDS011;4624;48.126;11.546;2022-09-02T12:50:49;1.38;;;0.60;;
9178;SDS011;4624;48.126;11.546;2022-09-02T12:53:25;1.55;;;0.50;;
9178;SDS011;4624;48.126;11.546;2022-09-02T12:56:00;1.38;;;0.50;;
9178;SDS011;4624;48.126;11.546;2022-09-02T12:58:32;0.80;;;0.50;;
9178;SDS011;4624;48.126;11.546;2022-09-02T13:01:12;0.80;;;0.38;;
9178;SDS011;4624;48.126;11.546;2022-09-02T13:04:05;1.67;;;0.55;;
9178;SDS011;4624;48.126;11.546;2022-09-02T13:09:59;1.55;;;0.57;;
9178;SDS011;4624;48.126;11.546;2022-09-02T13:12:56;0.63;;;0.50;;
9178;SDS011;4624;48.126;11.546;2022-09-02T13:15:55;1.02;;;0.75;;
9178;SDS011;4624;48.126;11.546;2022-09-02T13:18:43;0.50;;;0.50;;
9178;SDS011;4624;48.126;11.546;2022-09-02T13:24:58;0.90;;;0.60;;
9178;SDS011;4624;48.126;11.546;2022-09-02T13:28:01;2.83;;;0.60;;
9178;SDS011;4624;48.126;11.546;2022-09-02T13:31:05;1.83;;;0.70;;
9178;SDS011;4624;48.126;11.546;2022-09-02T13:33:37;3.22;;;0.85;;
9178;SDS011;4624;48.126;11.546;2022-09-02T13:36:05;0.40;;;0.40;;
9178;SDS011;4624;48.126;11.546;2022-09-02T13:38:33;1.70;;;0.53;;
9178;SDS011;4624;48.126;11.546;2022-09-02T13:41:00;0.63;;;0.60;;
9178;SDS011;4624;48.126;11.546;2022-09-02T13:43:27;2.00;;;0.50;;
9178;SDS011;4624;48.126;11.546;2022-09-02T13:45:57;2.27;;;0.60;;
9178;SDS011;4624;48.126;11.546;2022-09-02T13:48:27;0.60;;;0.60;;
9178;SDS011;4624;48.126;11.546;2022-09-02T13:50:58;2.60;;;0.60;;
9178;SDS011;4624;48.126;11.546;2022-09-02T13:53:30;1.87;;;0.70;;
9178;SDS011;4624;48.126;11.546;2022-09-02T13:55:59;3.60;;;0.60;;
9178;SDS011;4624;48.126;11.546;2022-09-02T13:58:32;1.30;;;0.60;;
9178;SDS011;4624;48.126;11.546;2022-09-02T14:01:17;1.40;;;0.60;;
9178;SDS011;4624;48.126;11.546;2022-09-02T14:03:48;1.07;;;0.50;;
9178;SDS011;4624;48.126;11.546;2022-09-02T14:06:17;1.27;;;0.57;;
9178;SDS011;4624;48.126;11.546;2022-09-02T14:08:47;0.60;;;0.50;;
9178;SDS011;4624;48.126;11.546;2022-09-02T14:11:15;1.47;;;0.50;;
9178;SDS011;4624;48.126;11.546;2022-09-02T14:13:43;1.87;;;0.60;;
9178;SDS011;4624;48.126;11.546;2022-09-02T14:16:23;1.40;;;0.60;;
9178;SDS011;4624;48.126;11.546;2022-09-02T14:19:06;2.97;;;0.77;;
9178;SDS011;4624;48.126;11.546;2022-09-02T14:21:36;0.90;;;0.57;;
9178;SDS011;4624;48.126;11.546;2022-09-02T14:24:09;1.63;;;0.60;;
9178;SDS011;4624;48.126;11.546;2022-09-02T14:26:40;1.83;;;0.80;;
9178;SDS011;4624;48.126;11.546;2022-09-02T14:29:10;0.73;;;0.53;;
9178;SDS011;4624;48.126;11.546;2022-09-02T14:31:39;3.13;;;0.60;;
9178;SDS011;4624;48.126;11.546;2022-09-02T14:36:59;2.03;;;0.53;;
9178;SDS011;4624;48.126;11.546;2022-09-02T14:39:26;0.80;;;0.80;;
9178;SDS011;4624;48.126;11.546;2022-09-02T14:41:53;1.13;;;0.70;;
9178;SDS011;4624;48.126;11.546;2022-09-02T14:44:22;1.20;;;0.93;;
9178;SDS011;4624;48.126;11.546;2022-09-02T14:46:53;1.63;;;1.33;;
9178;SDS011;4624;48.126;11.546;2022-09-02T14:49:23;0.70;;;0.60;;
9178;SDS011;4624;48.126;11.546;2022-09-02T14:51:54;0.60;;;0.60;;
9178;SDS011;4624;48.126;11.546;2022-09-02T14:54:33;1.03;;;0.80;;
9178;SDS011;4624;48.126;11.546;2022-09-02T14:57:02;0.80;;;0.60;;
9178;SDS011;4624;48.126;11.546;2022-09-02T14:59:29;1.80;;;0.67;;
9178;SDS011;4624;48.126;11.546;2022-09-02T15:01:56;0.70;;;0.50;;
9178;SDS011;4624;48.126;11.546;2022-09-02T15:04:24;4.00;;;0.70;;
9178;SDS011;4624;48.126;11.546;2022-09-02T15:06:51;2.70;;;0.53;;
9178;SDS011;4624;48.126;11.546;2022-09-02T15:09:20;0.63;;;0.63;;
9178;SDS011;4624;48.126;11.546;2022-09-02T15:11:48;1.83;;;0.50;;
9178;SDS011;4624;48.126;11.546;2022-09-02T15:14:18;1.47;;;0.70;;
9178;SDS011;4624;48.126;11.546;2022-09-02T15:16:45;0.60;;;0.50;;
9178;SDS011;4624;48.126;11.546;2022-09-02T15:19:12;0.63;;;0.50;;
9178;SDS011;4624;48.126;11.546;2022-09-02T15:21:39;0.47;;;0.43;;
9178;SDS011;4624;48.126;11.546;2022-09-02T15:24:07;0.70;;;0.50;;
9178;SDS011;4624;48.126;11.546;2022-09-02T15:26:34;1.90;;;0.47;;
9178;SDS011;4624;48.126;11.546;2022-09-02T15:29:01;1.87;;;0.40;;
9178;SDS011;4624;48.126;11.546;2022-09-02T15:31:29;1.60;;;0.53;;
9178;SDS011;4624;48.126;11.546;2022-09-02T15:33:56;0.53;;;0.43;;
9178;SDS011;4624;48.126;11.546;2022-09-02T15:36:22;0.50;;;0.50;;
9178;SDS011;4624;48.126;11.546;2022-09-02T15:38:51;0.60;;;0.60;;
9178;SDS011;4624;48.126;11.546;2022-09-02T15:41:20;0.50;;;0.50;;
9178;SDS011;4624;48.126;11.546;2022-09-02T15:43:49;2.87;;;0.60;;
9178;SDS011;4624;48.126;11.546;2022-09-02T15:46:18;0.80;;;0.50;;
9178;SDS011;4624;48.126;11.546;2022-09-02T15:48:50;1.70;;;0.50;;
9178;SDS011;4624;48.126;11.546;2022-09-02T15:51:18;0.67;;;0.60;;
9178;SDS011;4624;48.126;11.546;2022-09-02T15:53:46;0.77;;;0.70;;
9178;SDS011;4624;48.126;11.546;2022-09-02T15:56:21;0.87;;;0.63;;
9178;SDS011;4624;48.126;11.546;2022-09-02T15:58:52;2.33;;;0.70;;
9178;SDS011;4624;48.126;11.546;2022-09-02T16:01:22;0.70;;;0.60;;